createdAt,value
2023-04-15T00:01:01.309Z,101057.13
2023-04-15T00:03:28.710Z,101059.72
2023-04-15T00:05:55.420Z,101060.66
2023-04-15T00:08:22.098Z,101065.16
2023-04-15T00:10:49.283Z,101066.09
2023-04-15T00:13:16.478Z,101065.25
2023-04-15T00:15:43.373Z,101062.59
2023-04-15T00:18:10.196Z,101064.44
2023-04-15T00:20:37.240Z,101066.22
2023-04-15T00:23:04.171Z,101065.47
2023-04-15T00:25:31.426Z,101060.13
2023-04-15T00:27:58.197Z,101065.50
2023-04-15T00:30:25.678Z,101057.63
2023-04-15T00:32:52.656Z,101058.63
2023-04-15T00:35:19.379Z,101057.81
2023-04-15T00:37:46.309Z,101064.97
2023-04-15T00:40:14.005Z,101060.69
2023-04-15T00:42:41.170Z,101067.78
2023-04-15T00:45:08.779Z,101067.81
2023-04-15T00:47:37.598Z,101059.03
2023-04-15T00:50:04.962Z,101060.00
2023-04-15T00:52:31.945Z,101074.19
2023-04-15T00:54:59.442Z,101079.56
2023-04-15T00:57:26.137Z,101069.00
2023-04-15T00:59:52.712Z,101066.41
2023-04-15T01:02:19.983Z,101060.41
2023-04-15T01:04:47.020Z,101073.59
2023-04-15T01:07:13.606Z,101072.00
2023-04-15T01:09:40.636Z,101072.91
2023-04-15T01:12:10.267Z,101063.25
2023-04-15T01:14:36.985Z,101065.06
2023-04-15T01:17:03.615Z,101073.94
2023-04-15T01:19:31.204Z,101075.78
2023-04-15T01:21:57.930Z,101067.03
2023-04-15T01:24:28.040Z,101072.31
2023-04-15T01:26:54.900Z,101070.59
2023-04-15T01:29:22.295Z,101075.97
2023-04-15T01:31:54.958Z,101070.72
2023-04-15T01:34:22.235Z,101074.25
2023-04-15T01:36:48.818Z,101059.34
2023-04-15T01:39:15.821Z,101069.88
2023-04-15T01:41:42.433Z,101070.00
2023-04-15T01:44:09.158Z,101067.34
2023-04-15T01:46:36.263Z,101070.06
2023-04-15T01:49:02.955Z,101067.44
2023-04-15T01:51:29.503Z,101075.38
2023-04-15T01:53:58.873Z,101077.19
2023-04-15T01:56:25.505Z,101067.56
2023-04-15T01:58:52.927Z,101078.19
2023-04-15T02:01:20.806Z,101065.06
2023-04-15T02:03:48.213Z,101074.00
2023-04-15T02:06:14.911Z,101073.16
2023-04-15T02:08:41.616Z,101078.50
2023-04-15T02:11:08.405Z,101069.69
2023-04-15T02:13:34.959Z,101078.56
2023-04-15T02:16:01.640Z,101079.56
2023-04-15T02:18:28.237Z,101085.81
2023-04-15T02:20:56.609Z,101078.75
2023-04-15T02:23:23.123Z,101087.56
2023-04-15T02:25:53.546Z,101086.81
2023-04-15T02:28:21.262Z,101096.50
2023-04-15T02:30:53.375Z,101089.50
2023-04-15T02:33:22.136Z,101097.44
2023-04-15T02:35:48.765Z,101095.75
2023-04-15T02:38:16.787Z,101092.28
2023-04-15T02:40:43.327Z,101103.78
2023-04-15T02:43:09.848Z,101110.88
2023-04-15T02:45:36.353Z,101116.25
2023-04-15T02:48:06.141Z,101108.41
2023-04-15T02:50:33.105Z,101116.38
2023-04-15T02:53:01.391Z,101110.38
2023-04-15T02:55:28.787Z,101120.09
2023-04-15T02:57:55.558Z,101121.09
2023-04-15T03:00:22.409Z,101121.19
2023-04-15T03:02:52.379Z,101123.97
2023-04-15T03:05:19.099Z,101127.53
2023-04-15T03:07:45.766Z,101131.16
2023-04-15T03:10:12.469Z,101132.97
2023-04-15T03:12:39.426Z,101129.53
2023-04-15T03:15:06.846Z,101134.84
2023-04-15T03:17:33.518Z,101132.25
2023-04-15T03:20:02.458Z,101134.88
2023-04-15T03:22:29.026Z,101132.25
2023-04-15T03:24:56.108Z,101141.09
2023-04-15T03:27:22.880Z,101136.75
2023-04-15T03:29:49.731Z,101134.13
2023-04-15T03:32:16.701Z,101141.22
2023-04-15T03:34:43.482Z,101142.13
2023-04-15T03:37:09.992Z,101137.81
2023-04-15T03:39:36.807Z,101144.00
2023-04-15T03:42:03.885Z,101137.88
2023-04-15T03:44:30.500Z,101146.75
2023-04-15T03:46:57.084Z,101163.50
2023-04-15T03:49:24.755Z,101156.59
2023-04-15T03:51:51.557Z,101163.66
2023-04-15T03:54:18.036Z,101161.06
2023-04-15T03:56:44.541Z,101166.41
2023-04-15T03:59:11.432Z,101174.38
2023-04-15T04:01:37.974Z,101182.34
2023-04-15T04:04:04.743Z,101174.47
2023-04-15T04:06:31.575Z,101175.41
2023-04-15T04:08:58.263Z,101178.13
2023-04-15T04:11:24.846Z,101188.72
2023-04-15T04:13:51.351Z,101184.34
2023-04-15T04:16:18.036Z,101187.03
2023-04-15T04:18:44.632Z,101185.28
2023-04-15T04:21:11.571Z,101194.13
2023-04-15T04:23:38.139Z,101199.47
2023-04-15T04:26:04.646Z,101203.88
2023-04-15T04:28:31.724Z,101200.38
2023-04-15T04:30:58.254Z,101202.16
2023-04-15T04:33:25.003Z,101208.34
2023-04-15T04:35:51.516Z,101212.78
2023-04-15T04:38:18.014Z,101217.19
2023-04-15T04:40:44.588Z,101211.94
2023-04-15T04:43:11.213Z,101227.75
2023-04-15T04:45:37.855Z,101225.19
2023-04-15T04:48:07.285Z,101229.59
2023-04-15T04:50:34.900Z,101241.91
2023-04-15T04:53:01.939Z,101240.16
2023-04-15T04:55:28.648Z,101250.72
2023-04-15T04:57:55.610Z,101248.97
2023-04-15T05:00:22.792Z,101257.78
2023-04-15T05:02:49.718Z,101255.13
2023-04-15T05:05:16.501Z,101264.84
2023-04-15T05:07:43.180Z,101262.22
2023-04-15T05:10:10.095Z,101269.25
2023-04-15T05:12:38.413Z,101270.13
2023-04-15T05:15:06.351Z,101278.00
2023-04-15T05:17:35.252Z,101283.28
2023-04-15T05:20:03.462Z,101285.91
2023-04-15T05:22:30.117Z,101282.38
2023-04-15T05:24:56.641Z,101284.97
2023-04-15T05:27:24.057Z,101292.03
2023-04-15T05:29:50.632Z,101301.69
2023-04-15T05:32:17.359Z,101302.59
2023-04-15T05:34:43.978Z,101305.16
2023-04-15T05:37:10.478Z,101313.09
2023-04-15T05:39:38.065Z,101315.72
2023-04-15T05:42:06.005Z,101320.09
2023-04-15T05:44:35.517Z,101321.78
2023-04-15T05:47:03.521Z,101323.56
2023-04-15T05:49:30.077Z,101321.78
2023-04-15T05:51:56.709Z,101327.00
2023-04-15T05:54:23.452Z,101337.53
2023-04-15T05:56:50.271Z,101331.31
2023-04-15T05:59:16.787Z,101340.97
2023-04-15T06:01:43.850Z,101340.97
2023-04-15T06:04:11.534Z,101341.78
2023-04-15T06:06:38.656Z,101342.66
2023-04-15T06:09:05.274Z,101348.81
2023-04-15T06:11:32.066Z,101360.19
2023-04-15T06:13:58.627Z,101361.06
2023-04-15T06:16:25.229Z,101361.91
2023-04-15T06:18:51.752Z,101372.41
2023-04-15T06:21:18.532Z,101372.38
2023-04-15T06:23:45.210Z,101378.47
2023-04-15T06:26:11.696Z,101377.50
2023-04-15T06:28:38.209Z,101381.88
2023-04-15T06:31:04.870Z,101396.75
2023-04-15T06:33:31.896Z,101387.81
2023-04-15T06:35:58.584Z,101386.81
2023-04-15T06:38:25.315Z,101390.13
2023-04-15T06:40:51.901Z,101398.69
2023-04-15T06:43:18.528Z,101400.16
2023-04-15T06:45:45.837Z,101401.59
2023-04-15T06:48:12.971Z,101407.41
2023-04-15T06:50:39.578Z,101414.94
2023-04-15T06:53:06.550Z,101414.44
2023-04-15T06:55:33.963Z,101424.41
2023-04-15T06:58:00.675Z,101420.09
2023-04-15T07:00:28.564Z,101421.66
2023-04-15T07:02:55.822Z,101423.31
2023-04-15T07:05:22.606Z,101428.66
2023-04-15T07:07:49.239Z,101430.19
2023-04-15T07:10:15.901Z,101424.78
2023-04-15T07:12:42.586Z,101435.50
2023-04-15T07:15:09.426Z,101437.69
2023-04-15T07:17:36.348Z,101445.41
2023-04-15T07:20:05.298Z,101446.13
2023-04-15T07:22:36.400Z,101447.19
2023-04-15T07:27:44.064Z,101456.03
2023-04-15T07:30:11.099Z,101454.81
2023-04-15T07:32:37.739Z,101458.75
2023-04-15T07:35:04.795Z,101461.34
2023-04-15T07:37:31.412Z,101456.19
2023-04-15T07:39:58.089Z,101463.09
2023-04-15T07:42:25.384Z,101459.22
2023-04-15T07:44:52.172Z,101467.31
2023-04-15T07:47:18.791Z,101471.25
2023-04-15T07:49:45.410Z,101472.69
2023-04-15T07:52:12.304Z,101467.38
2023-04-15T07:54:38.922Z,101466.34
2023-04-15T07:57:05.456Z,101474.44
2023-04-15T07:59:33.539Z,101477.13
2023-04-15T08:02:00.410Z,101479.50
2023-04-15T08:04:27.447Z,101472.84
2023-04-15T08:06:54.781Z,101479.72
2023-04-15T08:09:21.501Z,101491.34
2023-04-15T08:11:51.178Z,101488.97
2023-04-15T08:14:17.860Z,101501.78
2023-04-15T08:16:44.523Z,101502.97
2023-04-15T08:19:11.333Z,101488.88
2023-04-15T08:21:37.978Z,101501.00
2023-04-15T08:24:04.568Z,101497.06
2023-04-15T08:26:31.222Z,101503.66
2023-04-15T08:28:57.911Z,101504.19
2023-04-15T08:31:28.636Z,101503.13
2023-04-15T08:33:57.696Z,101503.88
2023-04-15T08:36:24.250Z,101511.94
2023-04-15T08:38:51.188Z,101507.06
2023-04-15T08:41:25.712Z,101509.44
2023-04-15T08:43:58.166Z,101520.59
2023-04-15T08:46:25.433Z,101521.13
2023-04-15T08:48:57.279Z,101528.25
2023-04-15T08:51:25.143Z,101539.91
2023-04-15T08:53:53.582Z,101542.41
2023-04-15T08:56:26.281Z,101546.25
2023-04-15T08:58:53.325Z,101550.38
2023-04-15T09:01:20.495Z,101551.88
2023-04-15T09:03:49.330Z,101555.25
2023-04-15T09:06:17.857Z,101556.97
2023-04-15T09:08:44.883Z,101555.28
2023-04-15T09:11:11.452Z,101556.22
2023-04-15T09:13:38.221Z,101565.16
2023-04-15T09:16:08.523Z,101564.78
2023-04-15T09:18:38.682Z,101574.38
2023-04-15T09:21:11.935Z,101568.03
2023-04-15T09:23:40.977Z,101578.72
2023-04-15T09:26:08.224Z,101581.34
2023-04-15T09:28:43.147Z,101586.38
2023-04-15T09:31:10.777Z,101591.78
2023-04-15T09:33:56.955Z,101596.38
2023-04-15T09:36:24.983Z,101586.91
2023-04-15T09:38:59.383Z,101591.47
2023-04-15T09:41:27.269Z,101592.91
2023-04-15T09:43:53.933Z,101594.66
2023-04-15T09:46:20.530Z,101596.53
2023-04-15T09:48:47.487Z,101595.84
2023-04-15T09:51:15.040Z,101597.47
2023-04-15T09:53:41.614Z,101593.19
2023-04-15T09:56:09.078Z,101600.78
2023-04-15T09:58:37.105Z,101604.59
2023-04-15T10:01:06.150Z,101609.66
2023-04-15T10:03:38.109Z,101617.63
2023-04-15T10:06:07.861Z,101623.91
2023-04-15T10:08:34.930Z,101618.81
2023-04-15T10:11:06.217Z,101625.13
2023-04-15T10:13:35.002Z,101626.88
2023-04-15T10:16:14.295Z,101638.59
2023-04-15T10:18:44.473Z,101639.94
2023-04-15T10:21:11.198Z,101625.56
2023-04-15T10:23:39.527Z,101625.78
2023-04-15T10:26:06.644Z,101631.56
2023-04-15T10:28:33.201Z,101622.44
2023-04-15T10:31:01.716Z,101625.53
2023-04-15T10:33:29.840Z,101615.94
2023-04-15T10:35:57.745Z,101629.88
2023-04-15T10:38:34.805Z,101640.84
2023-04-15T10:41:22.590Z,101633.69
2023-04-15T10:44:05.642Z,101631.63
2023-04-15T10:46:38.215Z,101638.69
2023-04-15T10:49:13.344Z,101646.44
2023-04-15T10:51:46.348Z,101657.78
2023-04-15T10:54:26.366Z,101648.31
2023-04-15T10:57:22.309Z,101654.06
2023-04-15T10:59:58.631Z,101664.72
2023-04-15T11:02:54.702Z,101668.88
2023-04-15T11:05:23.718Z,101675.06
2023-04-15T11:07:56.131Z,101663.94
2023-04-15T11:10:25.873Z,101670.19
2023-04-15T11:12:58.511Z,101671.56
2023-04-15T11:15:40.556Z,101677.31
2023-04-15T11:18:21.338Z,101672.72
2023-04-15T11:20:54.724Z,101678.44
2023-04-15T11:23:30.267Z,101673.63
2023-04-15T11:25:58.627Z,101684.97
2023-04-15T11:28:34.246Z,101674.44
2023-04-15T11:31:14.790Z,101680.00
2023-04-15T11:33:59.620Z,101678.28
2023-04-15T11:36:28.729Z,101682.94
2023-04-15T11:38:55.919Z,101685.25
2023-04-15T11:41:23.727Z,101673.19
2023-04-15T11:43:50.962Z,101690.84
2023-04-15T11:46:17.872Z,101679.63
2023-04-15T11:48:46.052Z,101684.00
2023-04-15T11:51:14.384Z,101680.06
2023-04-15T11:53:51.937Z,101701.97
2023-04-15T11:56:21.484Z,101693.66
2023-04-15T11:58:50.780Z,101698.41
2023-04-15T12:01:17.715Z,101701.00
2023-04-15T12:03:49.316Z,101710.25
2023-04-15T12:06:24.395Z,101703.41
2023-04-15T12:09:06.069Z,101700.75
2023-04-15T12:11:35.774Z,101714.34
2023-04-15T12:14:08.987Z,101724.78
2023-04-15T12:16:47.907Z,101729.53
2023-04-15T12:19:24.569Z,101729.38
2023-04-15T12:21:52.291Z,101723.59
2023-04-15T12:24:24.834Z,101732.66
2023-04-15T12:26:54.245Z,101722.34
2023-04-15T12:29:26.626Z,101734.69
2023-04-15T12:31:55.019Z,101743.69
2023-04-15T12:34:36.284Z,101752.66
2023-04-15T12:37:04.972Z,101751.59
2023-04-15T12:39:35.450Z,101760.88
2023-04-15T12:42:03.362Z,101748.75
2023-04-15T12:44:30.257Z,101754.06
2023-04-15T12:46:57.594Z,101764.59
2023-04-15T12:49:25.484Z,101764.75
2023-04-15T12:51:54.869Z,101761.75
2023-04-15T12:54:21.616Z,101784.41
2023-04-15T12:56:50.244Z,101773.97
2023-04-15T12:59:20.129Z,101778.34
2023-04-15T13:01:48.239Z,101781.03
2023-04-15T13:04:16.431Z,101788.59
2023-04-15T13:06:43.936Z,101789.19
2023-04-15T13:09:10.804Z,101797.81
2023-04-15T13:11:37.439Z,101792.81
2023-04-15T13:14:06.828Z,101800.31
2023-04-15T13:16:34.826Z,101808.84
2023-04-15T13:19:03.210Z,101805.59
2023-04-15T13:21:32.074Z,101818.09
2023-04-15T13:23:59.379Z,101810.91
2023-04-15T13:26:26.545Z,101807.75
2023-04-15T13:28:53.114Z,101817.78
2023-04-15T13:31:19.837Z,101826.59
2023-04-15T13:33:46.406Z,101827.72
2023-04-15T13:36:12.968Z,101842.94
2023-04-15T13:38:39.477Z,101831.38
2023-04-15T13:41:06.082Z,101833.56
2023-04-15T13:43:34.148Z,101840.09
2023-04-15T13:46:03.580Z,101856.00
2023-04-15T13:48:30.221Z,101853.84
2023-04-15T13:50:56.808Z,101850.25
2023-04-15T13:53:33.782Z,101854.78
2023-04-15T13:56:10.215Z,101852.81
2023-04-15T13:58:37.955Z,101863.78
2023-04-15T14:01:06.797Z,101862.09
2023-04-15T14:03:36.079Z,101857.88
2023-04-15T14:06:03.093Z,101852.59
2023-04-15T14:08:30.047Z,101866.09
2023-04-15T14:10:57.610Z,101865.50
2023-04-15T14:13:24.254Z,101873.06
2023-04-15T14:15:50.768Z,101878.78
2023-04-15T14:18:17.335Z,101890.59
2023-04-15T14:20:43.880Z,101888.00
2023-04-15T14:23:10.396Z,101893.47
2023-04-15T14:25:39.133Z,101897.31
2023-04-15T14:28:05.787Z,101909.03
2023-04-15T14:30:32.558Z,101909.22
2023-04-15T14:32:59.253Z,101913.88
2023-04-15T14:35:26.818Z,101913.88
2023-04-15T14:37:56.458Z,101914.69
2023-04-15T14:40:24.206Z,101911.97
2023-04-15T14:42:50.797Z,101914.75
2023-04-15T14:45:17.647Z,101924.78
2023-04-15T14:47:44.787Z,101931.25
2023-04-15T14:50:11.426Z,101936.78
2023-04-15T14:52:40.865Z,101936.97
2023-04-15T14:55:12.182Z,101934.28
2023-04-15T14:57:40.905Z,101947.00
2023-04-15T15:00:09.882Z,101945.41
2023-04-15T15:02:40.230Z,101951.84
2023-04-15T15:05:08.723Z,101954.72
2023-04-15T15:07:37.156Z,101957.34
2023-04-15T15:10:04.805Z,101952.91
2023-04-15T15:12:32.033Z,101968.06
2023-04-15T15:14:58.569Z,101960.78
2023-04-15T15:17:25.318Z,101971.75
2023-04-15T15:19:51.844Z,101974.59
2023-04-15T15:22:20.834Z,101975.75
2023-04-15T15:24:48.146Z,101976.94
2023-04-15T15:27:14.726Z,101978.00
2023-04-15T15:29:41.373Z,101989.66
2023-04-15T15:32:08.199Z,101991.47
2023-04-15T15:34:37.747Z,101985.50
2023-04-15T15:37:04.387Z,101997.94
2023-04-15T15:39:31.213Z,101983.91
2023-04-15T15:41:57.826Z,101991.31
2023-04-15T15:44:24.393Z,101993.94
2023-04-15T15:46:51.199Z,102000.22
2023-04-15T15:49:18.028Z,102010.03
2023-04-15T15:51:45.988Z,102004.84
2023-04-15T15:54:12.854Z,102017.28
2023-04-15T15:56:39.564Z,102002.44
2023-04-15T15:59:06.622Z,102006.13
2023-04-15T16:01:33.617Z,102018.63
2023-04-15T16:04:00.783Z,102024.88
2023-04-15T16:06:27.666Z,102009.91
2023-04-15T16:08:54.172Z,102025.97
2023-04-15T16:11:20.849Z,102033.03
2023-04-15T16:13:47.367Z,102032.06
2023-04-15T16:16:14.103Z,102035.81
2023-04-15T16:18:40.720Z,102040.38
2023-04-15T16:21:07.675Z,102034.22
2023-04-15T16:23:34.311Z,102041.50
2023-04-15T16:26:00.889Z,102049.53
2023-04-15T16:28:27.526Z,102039.91
2023-04-15T16:30:55.948Z,102051.44
2023-04-15T16:33:22.631Z,102056.84
2023-04-15T16:35:49.269Z,102066.78
2023-04-15T16:38:15.894Z,102062.44
2023-04-15T16:40:42.531Z,102059.16
2023-04-15T16:43:11.136Z,102075.97
2023-04-15T16:45:37.924Z,102092.00
2023-04-15T16:48:04.765Z,102077.09
2023-04-15T16:50:31.487Z,102078.84
2023-04-15T16:52:58.088Z,102088.59
2023-04-15T16:55:24.916Z,102088.69
2023-04-15T16:58:02.335Z,102090.47
2023-04-15T17:00:31.314Z,102078.22
2023-04-15T17:02:58.653Z,102089.84
2023-04-15T17:05:27.453Z,102091.59
2023-04-15T17:07:55.020Z,102088.19
2023-04-15T17:10:21.734Z,102092.63
2023-04-15T17:12:49.739Z,102098.84
2023-04-15T17:15:16.350Z,102098.03
2023-04-15T17:17:43.069Z,102099.81
2023-04-15T17:20:10.504Z,102102.56
2023-04-15T17:22:37.255Z,102096.38
2023-04-15T17:25:04.648Z,102108.81
2023-04-15T17:27:31.208Z,102120.34
2023-04-15T17:29:57.962Z,102106.13
2023-04-15T17:32:30.578Z,102112.34
2023-04-15T17:34:57.319Z,102117.66
2023-04-15T17:37:24.047Z,102121.28
2023-04-15T17:39:50.622Z,102115.16
2023-04-15T17:42:17.602Z,102118.75
2023-04-15T17:44:45.526Z,102117.06
2023-04-15T17:47:12.216Z,102122.38
2023-04-15T17:49:38.831Z,102125.91
2023-04-15T17:52:05.844Z,102138.34
2023-04-15T17:54:32.463Z,102139.28
2023-04-15T17:57:00.094Z,102142.91
2023-04-15T17:59:27.532Z,102147.34
2023-04-15T18:01:54.207Z,102140.19
2023-04-15T18:04:22.024Z,102146.34
2023-04-15T18:06:49.917Z,102153.44
2023-04-15T18:09:16.541Z,102152.59
2023-04-15T18:11:44.992Z,102149.94
2023-04-15T18:14:15.696Z,102152.66
2023-04-15T18:16:50.050Z,102168.63
2023-04-15T18:19:16.616Z,102161.56
2023-04-15T18:21:43.393Z,102153.59
2023-04-15T18:24:09.984Z,102166.91
2023-04-15T18:26:36.714Z,102161.56
2023-04-15T18:29:03.229Z,102164.28
2023-04-15T18:31:29.841Z,102176.69
2023-04-15T18:33:56.717Z,102178.53
2023-04-15T18:36:24.071Z,102183.88
2023-04-15T18:38:50.651Z,102181.19
2023-04-15T18:41:17.256Z,102178.63
2023-04-15T18:43:44.030Z,102181.25
2023-04-15T18:46:12.262Z,102187.44
2023-04-15T18:48:38.864Z,102184.91
2023-04-15T18:51:05.472Z,102188.50
2023-04-15T18:53:32.398Z,102190.28
2023-04-15T18:56:01.616Z,102202.69
2023-04-15T18:58:28.414Z,102200.91
2023-04-15T19:01:15.366Z,102197.44
2023-04-15T19:03:42.029Z,102217.81
2023-04-15T19:06:08.693Z,102219.59
2023-04-15T19:08:35.281Z,102227.56
2023-04-15T19:11:02.053Z,102224.06
2023-04-15T19:13:28.641Z,102219.69
2023-04-15T19:15:55.273Z,102230.31
2023-04-15T19:18:21.825Z,102221.44
2023-04-15T19:20:50.356Z,102231.22
2023-04-15T19:23:17.022Z,102217.06
2023-04-15T19:25:43.682Z,102226.78
2023-04-15T19:28:10.418Z,102235.63
2023-04-15T19:30:37.083Z,102232.13
2023-04-15T19:33:03.870Z,102229.53
2023-04-15T19:35:30.490Z,102239.22
2023-04-15T19:37:57.159Z,102239.22
2023-04-15T19:40:24.122Z,102238.38
2023-04-15T19:42:50.667Z,102246.31
2023-04-15T19:45:17.410Z,102236.63
2023-04-15T19:47:44.065Z,102238.38
2023-04-15T19:50:12.012Z,102241.94
2023-04-15T19:52:38.611Z,102253.44
2023-04-15T19:55:05.682Z,102253.47
2023-04-15T19:57:32.276Z,102252.59
2023-04-15T19:59:58.954Z,102250.88
2023-04-15T20:02:25.721Z,102254.41
2023-04-15T20:04:52.613Z,102257.94
2023-04-15T20:07:19.219Z,102250.00
2023-04-15T20:09:46.004Z,102246.50
2023-04-15T20:12:50.192Z,102253.56
2023-04-15T20:14:59.190Z,102250.88
2023-04-15T20:17:28.167Z,102253.53
2023-04-15T20:19:54.978Z,102250.00
2023-04-15T20:22:22.862Z,102254.41
2023-04-15T20:24:49.435Z,102255.31
2023-04-15T20:27:16.101Z,102260.63
2023-04-15T20:29:42.942Z,102263.28
2023-04-15T20:32:11.416Z,102263.28
2023-04-15T20:34:40.479Z,102269.47
2023-04-15T20:37:08.391Z,102256.19
2023-04-15T20:39:34.972Z,102255.31
2023-04-15T20:42:01.629Z,102265.03
2023-04-15T20:44:28.419Z,102249.13
2023-04-15T20:46:55.087Z,102267.69
2023-04-15T20:49:21.815Z,102256.19
2023-04-15T20:51:49.261Z,102269.47
2023-04-15T20:54:16.186Z,102267.69
2023-04-15T20:56:42.742Z,102268.59
2023-04-15T20:59:09.276Z,102259.75
2023-04-15T21:01:35.990Z,102268.59
2023-04-15T21:04:02.681Z,102277.47
2023-04-15T21:06:29.408Z,102275.69
2023-04-15T21:08:56.405Z,102279.22
2023-04-15T21:11:43.168Z,102277.47
2023-04-15T21:14:09.428Z,102283.66
2023-04-15T21:16:36.050Z,102272.13
2023-04-15T21:19:02.757Z,102281.88
2023-04-15T21:21:29.342Z,102281.88
2023-04-15T21:23:55.936Z,102284.53
2023-04-15T21:26:22.529Z,102278.34
2023-04-15T21:28:49.162Z,102291.63
2023-04-15T21:31:16.153Z,102282.78
2023-04-15T21:33:42.743Z,102296.94
2023-04-15T21:36:09.327Z,102291.69
2023-04-15T21:38:39.107Z,102298.72
2023-04-15T21:41:09.503Z,102286.31
2023-04-15T21:43:37.196Z,102288.09
2023-04-15T21:46:21.964Z,102295.19
2023-04-15T21:48:50.463Z,102290.75
2023-04-15T21:51:17.029Z,102282.78
2023-04-15T21:53:43.656Z,102290.75
2023-04-15T21:56:10.292Z,102291.63
2023-04-15T21:58:36.811Z,102301.44
2023-04-15T22:01:04.760Z,102304.03
2023-04-15T22:03:33.964Z,102310.22
2023-04-15T22:06:01.911Z,102308.47
2023-04-15T22:08:28.622Z,102312.00
2023-04-15T22:10:55.710Z,102318.22
2023-04-15T22:13:22.366Z,102312.91
2023-04-15T22:15:48.914Z,102320.84
2023-04-15T22:18:15.547Z,102312.88
2023-04-15T22:20:42.281Z,102324.41
2023-04-15T22:23:09.770Z,102321.75
2023-04-15T22:25:37.250Z,102317.31
2023-04-15T22:28:06.908Z,102312.00
2023-04-15T22:30:36.787Z,102315.56
2023-04-15T22:33:03.503Z,102314.66
2023-04-15T22:35:30.106Z,102325.28
2023-04-15T22:37:56.692Z,102317.31
2023-04-15T22:40:23.237Z,102327.06
2023-04-15T22:42:49.807Z,102322.63
2023-04-15T22:45:16.493Z,102326.19
2023-04-15T22:47:43.363Z,102331.47
2023-04-15T22:50:10.062Z,102325.28
2023-04-15T22:52:36.965Z,102322.63
2023-04-15T22:55:04.354Z,102329.69
2023-04-15T22:57:31.424Z,102326.16
2023-04-15T22:59:57.975Z,102330.56
2023-04-15T23:02:25.044Z,102341.19
2023-04-15T23:04:51.862Z,102339.41
2023-04-15T23:07:18.518Z,102354.47
2023-04-15T23:09:45.414Z,102337.63
2023-04-15T23:12:13.370Z,102341.19
2023-04-15T23:14:39.886Z,102352.69
2023-04-15T23:17:06.460Z,102358.88
2023-04-15T23:19:33.004Z,102359.78
2023-04-15T23:21:59.532Z,102355.34
2023-04-15T23:24:26.356Z,102361.56
2023-04-15T23:26:53.145Z,102353.63
2023-04-15T23:29:19.742Z,102362.44
2023-04-15T23:31:46.402Z,102351.84
2023-04-15T23:34:12.925Z,102357.16
2023-04-15T23:36:39.521Z,102361.56
2023-04-15T23:39:06.262Z,102358.94
2023-04-15T23:41:32.829Z,102358.94
2023-04-15T23:43:59.433Z,102364.22
2023-04-15T23:46:26.049Z,102361.59
2023-04-15T23:48:52.814Z,102366.91
2023-04-15T23:51:19.604Z,102364.22
2023-04-15T23:53:46.202Z,102373.06
2023-04-15T23:56:12.789Z,102366.03
2023-04-15T23:58:39.369Z,102368.69
